Time;durP1;ratioP1;P1;durP2;ratioP2;P2;SDS_P1;SDS_P2;PMS_P1;PMS_P2;Temp;Humidity;BMP_temperature;BMP_pressure;BME280_temperature;BME280_humidity;BME280_pressure;Samples;Min_cycle;Max_cycle;Signal;HPM_P1;HPM_P2
2021/04/05 00:00:32;;;;;;;23.85;19.10;;;6.40;99.90;;;;;;5066540;28;20207;-73
2021/04/05 00:02:59;;;;;;;29.17;18.08;;;6.40;99.90;;;;;;5069871;28;20632;-72
2021/04/05 00:05:29;;;;;;;29.90;20.25;;;6.40;99.90;;;;;;5067242;28;20284;-73
2021/04/05 00:07:57;;;;;;;27.48;16.23;;;6.40;99.90;;;;;;5055311;28;20199;-73
2021/04/05 00:10:30;;;;;;;23.52;18.85;;;6.40;99.90;;;;;;5071601;28;20195;-71
2021/04/05 00:13:00;;;;;;;21.45;18.10;;;6.50;99.90;;;;;;5064931;28;20198;-72
2021/04/05 00:15:27;;;;;;;23.23;17.60;;;6.50;99.90;;;;;;5065080;28;20266;-72
2021/04/05 00:17:54;;;;;;;26.42;17.40;;;6.50;99.90;;;;;;5071534;28;20557;-73
2021/04/05 00:20:23;;;;;;;26.90;17.30;;;6.50;99.90;;;;;;5061418;28;20199;-73
2021/04/05 00:22:50;;;;;;;23.77;16.10;;;6.50;99.90;;;;;;5061659;28;20624;-70
2021/04/05 00:25:18;;;;;;;21.90;15.93;;;6.50;99.90;;;;;;5058869;28;20230;-72
2021/04/05 00:27:45;;;;;;;21.65;13.90;;;6.50;99.90;;;;;;5068905;28;20207;-72
2021/04/05 00:30:17;;;;;;;28.35;16.50;;;6.50;99.90;;;;;;5069496;28;20203;-72
2021/04/05 00:32:44;;;;;;;20.90;14.45;;;6.50;99.90;;;;;;5074760;28;20203;-72
2021/04/05 00:35:12;;;;;;;27.33;15.40;;;6.60;99.90;;;;;;5065009;28;20196;-72
2021/04/05 00:37:39;;;;;;;24.58;16.67;;;6.60;99.90;;;;;;5069319;28;20207;-72
2021/04/05 00:40:07;;;;;;;24.50;14.55;;;6.60;99.90;;;;;;5066204;28;20210;-72
2021/04/05 00:42:37;;;;;;;20.05;13.80;;;6.60;99.90;;;;;;5073430;28;20193;-72
2021/04/05 00:45:06;;;;;;;26.65;14.80;;;6.60;99.90;;;;;;5073849;28;20210;-73
2021/04/05 00:47:35;;;;;;;24.27;14.95;;;6.60;99.90;;;;;;5069607;28;20214;-72
2021/04/05 00:50:02;;;;;;;21.83;15.18;;;6.60;99.90;;;;;;5062525;28;20215;-72
2021/04/05 00:52:29;;;;;;;20.40;14.30;;;6.60;99.90;;;;;;5068882;28;20199;-74
2021/04/05 00:54:58;;;;;;;22.92;14.10;;;6.60;99.90;;;;;;5070577;28;20207;-71
2021/04/05 00:57:25;;;;;;;21.50;15.75;;;6.60;99.90;;;;;;5061680;28;20277;-71
2021/04/05 00:59:52;;;;;;;18.05;13.00;;;6.60;99.90;;;;;;5068203;28;20207;-73
2021/04/05 01:02:19;;;;;;;20.00;13.70;;;6.60;99.90;;;;;;5060686;28;20204;-72
2021/04/05 01:04:46;;;;;;;21.05;14.00;;;6.60;99.90;;;;;;5062743;28;20204;-72
2021/04/05 01:07:12;;;;;;;24.45;14.43;;;6.70;99.90;;;;;;5073235;28;20738;-72
2021/04/05 01:09:39;;;;;;;17.90;13.70;;;6.70;99.90;;;;;;5067226;28;20227;-72
2021/04/05 01:12:07;;;;;;;20.27;12.30;;;6.70;99.90;;;;;;5069828;28;21494;-71
2021/04/05 01:14:34;;;;;;;20.13;13.27;;;6.80;99.90;;;;;;5074014;28;20203;-71
2021/04/05 01:17:01;;;;;;;24.52;14.73;;;6.70;99.90;;;;;;5073579;28;20706;-72
2021/04/05 01:19:28;;;;;;;21.83;14.05;;;6.80;99.90;;;;;;5069571;28;20204;-72
2021/04/05 01:21:56;;;;;;;23.42;14.40;;;6.70;99.90;;;;;;5070286;28;20234;-72
2021/04/05 01:24:22;;;;;;;20.85;13.25;;;6.80;99.90;;;;;;5058682;28;20199;-72
2021/04/05 01:26:49;;;;;;;23.05;14.18;;;6.80;99.90;;;;;;5060849;28;20274;-72
2021/04/05 01:29:15;;;;;;;18.08;12.60;;;6.80;99.90;;;;;;5071661;28;20236;-72
2021/04/05 01:31:42;;;;;;;18.88;12.40;;;6.80;99.90;;;;;;5069216;28;20210;-72
2021/04/05 01:34:09;;;;;;;16.58;12.38;;;6.80;99.90;;;;;;5065586;28;20211;-73
2021/04/05 01:36:36;;;;;;;28.08;14.20;;;6.80;99.90;;;;;;5074092;28;20230;-72
2021/04/05 01:39:04;;;;;;;24.25;14.32;;;6.90;99.90;;;;;;5064177;28;20204;-72
2021/04/05 01:41:32;;;;;;;25.13;14.80;;;6.90;99.90;;;;;;5057151;28;20206;-73
2021/04/05 01:43:59;;;;;;;17.73;12.82;;;6.90;99.90;;;;;;5062172;28;20218;-72
2021/04/05 01:46:28;;;;;;;22.33;15.20;;;6.90;99.90;;;;;;5055619;28;20234;-72
2021/04/05 01:48:58;;;;;;;23.27;13.05;;;7.00;99.90;;;;;;5062204;28;20204;-72
2021/04/05 01:51:25;;;;;;;22.77;13.05;;;7.00;99.90;;;;;;5053729;28;20569;-72
2021/04/05 01:53:53;;;;;;;20.35;14.63;;;7.00;99.90;;;;;;5074217;28;20218;-72
2021/04/05 01:56:21;;;;;;;20.08;15.60;;;7.00;99.90;;;;;;5066400;28;20218;-72
2021/04/05 01:58:49;;;;;;;27.23;16.05;;;7.00;99.90;;;;;;5072322;28;20201;-73
2021/04/05 02:01:19;;;;;;;20.92;14.73;;;7.10;99.90;;;;;;5076700;28;20205;-71
2021/04/05 02:03:47;;;;;;;25.67;14.48;;;7.10;99.90;;;;;;5064051;28;20580;-71
2021/04/05 02:06:16;;;;;;;22.42;14.05;;;7.20;99.90;;;;;;5060010;28;20694;-72
2021/04/05 02:08:44;;;;;;;23.95;14.73;;;7.20;99.90;;;;;;5071720;28;20203;-71
2021/04/05 02:11:13;;;;;;;28.40;14.35;;;7.20;99.90;;;;;;5064793;28;20205;-72
2021/04/05 02:13:41;;;;;;;24.65;14.27;;;7.20;99.90;;;;;;5067062;28;20207;-71
2021/04/05 02:16:12;;;;;;;24.30;16.08;;;7.20;99.90;;;;;;5065955;28;20232;-71
2021/04/05 02:18:40;;;;;;;31.15;15.35;;;7.20;99.90;;;;;;5071873;28;20652;-70
2021/04/05 02:21:10;;;;;;;24.42;16.55;;;7.20;99.90;;;;;;5063212;28;20201;-72
2021/04/05 02:23:37;;;;;;;25.15;15.50;;;7.10;99.90;;;;;;5062426;28;20203;-72
2021/04/05 02:26:07;;;;;;;21.80;14.38;;;7.10;99.90;;;;;;5063059;28;20292;-72
2021/04/05 02:28:35;;;;;;;26.92;16.55;;;7.20;99.90;;;;;;5057838;28;20232;-71
2021/04/05 02:31:05;;;;;;;25.73;15.07;;;7.20;99.90;;;;;;5060474;28;20211;-71
2021/04/05 02:33:36;;;;;;;26.02;14.68;;;7.20;99.90;;;;;;5057737;28;20207;-71
2021/04/05 02:36:03;;;;;;;26.10;17.55;;;7.20;99.90;;;;;;5056651;28;20319;-71
2021/04/05 02:38:33;;;;;;;30.48;18.08;;;7.20;99.90;;;;;;5068943;28;20247;-72
2021/04/05 02:41:00;;;;;;;36.92;16.13;;;7.20;99.90;;;;;;5073044;28;20224;-72
2021/04/05 02:43:27;;;;;;;26.35;15.20;;;7.20;99.90;;;;;;5063133;28;20195;-72
2021/04/05 02:45:54;;;;;;;27.20;15.90;;;7.30;99.90;;;;;;5072675;28;20661;-72
2021/04/05 02:48:23;;;;;;;27.45;16.50;;;7.30;99.90;;;;;;5060305;28;20201;-72
2021/04/05 02:50:50;;;;;;;31.33;16.02;;;7.30;99.90;;;;;;5072586;28;20551;-72
2021/04/05 02:53:18;;;;;;;24.05;15.45;;;7.30;99.90;;;;;;5070528;28;20205;-71
2021/04/05 02:55:45;;;;;;;31.40;16.65;;;7.40;99.90;;;;;;5070332;28;20601;-73
2021/04/05 02:58:12;;;;;;;30.40;17.27;;;7.40;99.90;;;;;;5065902;28;20219;-73
2021/04/05 03:00:39;;;;;;;24.67;17.90;;;7.40;99.90;;;;;;5064509;28;20201;-72
2021/04/05 03:03:06;;;;;;;29.98;16.60;;;7.40;99.90;;;;;;5071216;28;20211;-72
2021/04/05 03:05:34;;;;;;;29.95;16.25;;;7.40;99.90;;;;;;5071957;28;20540;-72
2021/04/05 03:08:02;;;;;;;28.50;16.88;;;7.50;99.90;;;;;;5072046;28;20202;-72
2021/04/05 03:10:34;;;;;;;30.17;17.50;;;7.50;99.90;;;;;;5070072;28;20221;-72
2021/04/05 03:13:02;;;;;;;26.77;17.73;;;7.50;99.90;;;;;;5063807;28;20885;-70
2021/04/05 03:15:29;;;;;;;37.50;18.35;;;7.50;99.90;;;;;;5067595;28;20227;-74
2021/04/05 03:17:59;;;;;;;28.98;18.70;;;7.50;99.90;;;;;;5072468;28;20211;-73
2021/04/05 03:20:31;;;;;;;23.80;17.05;;;7.60;99.90;;;;;;5066874;28;20562;-73
2021/04/05 03:22:59;;;;;;;25.60;16.55;;;7.70;99.90;;;;;;5071537;28;20252;-72
2021/04/05 03:25:26;;;;;;;30.42;17.15;;;7.60;99.90;;;;;;5072385;28;20231;-72
2021/04/05 03:27:53;;;;;;;28.05;18.42;;;7.60;99.90;;;;;;5063881;28;20258;-72
2021/04/05 03:30:25;;;;;;;38.35;18.05;;;7.70;99.90;;;;;;5069359;28;20199;-71
2021/04/05 03:32:57;;;;;;;37.65;17.77;;;7.70;99.90;;;;;;5062195;28;20193;-71
2021/04/05 03:35:30;;;;;;;34.10;18.52;;;7.60;99.90;;;;;;5071609;28;20230;-72
2021/04/05 03:38:00;;;;;;;39.80;21.50;;;7.60;99.90;;;;;;5072045;28;20220;-71
2021/04/05 03:40:28;;;;;;;29.77;19.48;;;7.60;99.90;;;;;;5069820;28;20204;-71
2021/04/05 03:43:04;;;;;;;33.55;22.00;;;7.60;99.90;;;;;;5062429;28;20198;-71
2021/04/05 03:45:38;;;;;;;29.13;20.98;;;7.60;99.90;;;;;;5067606;28;20769;-71
2021/04/05 03:48:12;;;;;;;38.92;20.70;;;7.50;99.90;;;;;;5053400;28;20233;-72
2021/04/05 03:50:44;;;;;;;38.28;21.73;;;7.50;99.90;;;;;;5049707;28;20684;-71
2021/04/05 03:53:24;;;;;;;31.95;20.58;;;7.50;99.90;;;;;;5070001;28;20259;-72
2021/04/05 03:55:56;;;;;;;44.97;22.38;;;7.40;99.90;;;;;;5069749;28;20246;-72
2021/04/05 03:58:27;;;;;;;39.63;22.92;;;7.40;99.90;;;;;;5070129;28;20215;-72
2021/04/05 04:00:57;;;;;;;41.40;24.33;;;7.30;99.90;;;;;;5063905;28;20202;-73
2021/04/05 04:03:33;;;;;;;38.25;21.48;;;7.30;99.90;;;;;;5056213;28;20298;-72
2021/04/05 04:06:02;;;;;;;41.33;22.77;;;7.30;99.90;;;;;;5063454;28;20226;-71
2021/04/05 04:08:36;;;;;;;43.63;23.33;;;7.20;99.90;;;;;;5063785;28;20564;-72
2021/04/05 04:11:06;;;;;;;40.72;23.58;;;7.20;99.90;;;;;;5049772;28;20211;-72
2021/04/05 04:13:39;;;;;;;36.92;24.05;;;7.20;99.90;;;;;;5067273;28;20232;-72
2021/04/05 04:16:08;;;;;;;34.13;21.50;;;7.20;99.90;;;;;;5067858;28;20231;-72
2021/04/05 04:18:36;;;;;;;41.90;22.17;;;7.20;99.90;;;;;;5073807;28;20682;-71
2021/04/05 04:21:03;;;;;;;35.63;22.33;;;7.20;99.90;;;;;;5074912;28;20224;-72
2021/04/05 04:23:32;;;;;;;43.28;23.60;;;7.20;99.90;;;;;;5072175;28;20215;-72
2021/04/05 04:25:58;;;;;;;36.15;21.95;;;7.20;99.90;;;;;;5071722;28;20733;-71
2021/04/05 04:28:25;;;;;;;36.45;21.88;;;7.20;99.90;;;;;;5062882;28;20220;-72
2021/04/05 04:30:55;;;;;;;25.75;19.23;;;7.20;99.90;;;;;;5070645;28;20200;-72
2021/04/05 04:33:25;;;;;;;36.75;22.15;;;7.20;99.90;;;;;;5070511;28;20305;-72
2021/04/05 04:35:53;;;;;;;34.63;20.88;;;7.20;99.90;;;;;;5068012;28;20224;-73
2021/04/05 04:38:21;;;;;;;35.30;20.88;;;7.20;99.90;;;;;;5059923;28;20224;-74
2021/04/05 04:40:49;;;;;;;32.38;20.35;;;7.30;99.90;;;;;;5073057;28;20199;-74
2021/04/05 04:43:16;;;;;;;37.20;20.38;;;7.20;99.90;;;;;;5075908;28;20211;-74
2021/04/05 04:45:43;;;;;;;38.10;19.30;;;7.20;99.90;;;;;;5073340;28;20727;-74
2021/04/05 04:48:10;;;;;;;31.45;21.50;;;7.20;99.90;;;;;;5067288;28;20203;-74
2021/04/05 04:50:37;;;;;;;40.72;19.35;;;7.30;99.90;;;;;;5074072;28;20205;-74
2021/04/05 04:53:05;;;;;;;28.73;15.23;;;7.30;99.90;;;;;;5065499;28;20208;-74
2021/04/05 04:55:31;;;;;;;25.23;13.70;;;7.30;99.90;;;;;;5066643;28;20219;-72
2021/04/05 04:58:01;;;;;;;18.45;11.75;;;7.30;99.90;;;;;;5074273;28;20243;-73
2021/04/05 05:00:30;;;;;;;7.25;4.20;;;7.20;99.90;;;;;;5074013;28;20199;-73
2021/04/05 05:02:58;;;;;;;5.20;2.28;;;7.20;99.90;;;;;;5065366;28;20731;-74
2021/04/05 05:05:27;;;;;;;3.78;1.88;;;7.00;99.90;;;;;;5062812;28;20591;-73
2021/04/05 05:07:55;;;;;;;5.65;1.80;;;6.90;99.90;;;;;;5073327;28;20649;-73
2021/04/05 05:10:23;;;;;;;1.92;1.08;;;6.70;99.90;;;;;;5061760;28;20203;-73
2021/04/05 05:12:50;;;;;;;3.20;1.10;;;6.60;99.90;;;;;;5074681;28;20203;-74
2021/04/05 05:15:18;;;;;;;2.75;1.10;;;6.50;99.90;;;;;;5067281;28;20234;-73
2021/04/05 05:17:47;;;;;;;4.45;0.88;;;6.40;99.90;;;;;;5063989;28;20234;-74
2021/04/05 05:20:15;;;;;;;3.05;1.20;;;6.40;99.90;;;;;;5072086;28;20204;-74
2021/04/05 05:22:46;;;;;;;2.30;1.02;;;6.30;99.90;;;;;;5074261;28;20199;-74
2021/04/05 05:25:18;;;;;;;3.05;1.65;;;6.20;99.90;;;;;;5070591;28;20214;-75
2021/04/05 05:27:51;;;;;;;1.70;1.13;;;6.20;99.90;;;;;;5075405;28;20310;-73
2021/04/05 05:30:21;;;;;;;3.92;1.08;;;6.10;99.90;;;;;;5063572;28;20199;-74
2021/04/05 05:32:49;;;;;;;2.65;1.27;;;6.10;99.90;;;;;;5062605;28;20229;-74
2021/04/05 05:35:17;;;;;;;4.38;1.73;;;6.10;99.90;;;;;;5066912;28;20330;-74
2021/04/05 05:37:45;;;;;;;5.30;1.70;;;6.10;99.90;;;;;;5068946;28;20233;-74
2021/04/05 05:40:18;;;;;;;4.55;1.80;;;6.10;99.90;;;;;;5056907;28;20207;-75
2021/04/05 05:42:57;;;;;;;5.75;2.10;;;6.10;99.90;;;;;;5065192;28;20196;-75
2021/04/05 05:45:29;;;;;;;3.60;1.40;;;6.10;99.90;;;;;;5060655;28;20219;-75
2021/04/05 05:48:04;;;;;;;6.80;2.85;;;6.20;99.90;;;;;;5070833;28;20195;-75
2021/04/05 05:50:42;;;;;;;6.32;2.03;;;6.20;99.90;;;;;;5060374;28;20194;-74
2021/04/05 05:53:19;;;;;;;4.97;2.30;;;6.10;99.90;;;;;;5055063;28;20209;-75
2021/04/05 05:56:05;;;;;;;4.40;1.50;;;6.10;99.90;;;;;;5074164;28;20219;-75
2021/04/05 05:58:40;;;;;;;2.80;1.65;;;6.00;99.90;;;;;;5053321;28;20223;-75
2021/04/05 06:01:17;;;;;;;4.82;1.60;;;6.00;99.90;;;;;;5056038;28;20208;-75
2021/04/05 06:03:54;;;;;;;4.50;1.70;;;5.90;99.90;;;;;;5049960;28;20629;-75
2021/04/05 06:06:27;;;;;;;3.95;1.70;;;5.90;99.90;;;;;;5053105;28;20246;-74
2021/04/05 06:09:12;;;;;;;3.17;1.40;;;5.90;99.90;;;;;;5067515;28;20199;-75
2021/04/05 06:11:52;;;;;;;4.15;1.58;;;5.90;99.90;;;;;;5069933;28;20248;-75
2021/04/05 06:14:35;;;;;;;5.85;1.92;;;5.90;99.90;;;;;;5057706;28;20200;-76
2021/04/05 06:17:13;;;;;;;7.90;3.17;;;5.80;99.90;;;;;;5068407;28;20226;-75
2021/04/05 06:19:49;;;;;;;5.68;1.88;;;5.80;99.90;;;;;;5055407;28;20202;-75
2021/04/05 06:22:41;;;;;;;4.78;1.45;;;5.80;99.90;;;;;;5065818;28;20218;-75
2021/04/05 06:25:14;;;;;;;4.15;1.50;;;5.70;99.90;;;;;;5070939;28;20195;-75
2021/04/05 06:27:56;;;;;;;3.08;1.55;;;5.80;99.90;;;;;;5071679;28;20211;-75
2021/04/05 06:30:32;;;;;;;6.65;2.10;;;5.80;99.90;;;;;;5046305;28;20206;-76
2021/04/05 06:33:09;;;;;;;6.13;2.30;;;5.90;99.90;;;;;;5042148;28;20199;-76
2021/04/05 06:36:07;;;;;;;17.13;2.63;;;5.90;99.90;;;;;;5055457;28;20226;-76
2021/04/05 06:38:38;;;;;;;3.97;2.17;;;6.00;99.90;;;;;;5060635;28;20227;-74
2021/04/05 06:41:21;;;;;;;7.28;2.47;;;6.00;99.90;;;;;;5071975;28;20199;-74
2021/04/05 06:44:48;;;;;;;3.70;1.95;;;5.90;99.90;;;;;;5051376;28;20202;-75
2021/04/05 06:47:50;;;;;;;4.25;2.08;;;5.90;99.90;;;;;;4949670;28;20225;-75
2021/04/05 06:50:31;;;;;;;9.93;2.20;;;5.90;99.90;;;;;;4990177;28;20659;-75
2021/04/05 06:53:42;;;;;;;5.18;1.15;;;5.90;99.90;;;;;;5047671;28;20267;-75
2021/04/05 06:56:19;;;;;;;7.18;1.80;;;5.80;99.90;;;;;;5050065;28;20228;-74
2021/04/05 06:59:04;;;;;;;2.80;1.63;;;5.80;99.90;;;;;;5042120;28;20223;-76
2021/04/05 07:01:43;;;;;;;5.50;2.10;;;5.80;99.90;;;;;;5056030;28;20202;-75
2021/04/05 07:04:26;;;;;;;6.32;1.52;;;5.80;99.90;;;;;;5046960;28;20565;-71
2021/04/05 07:07:08;;;;;;;4.35;2.00;;;5.80;99.90;;;;;;5056708;28;20243;-72
2021/04/05 07:09:52;;;;;;;7.93;2.45;;;5.70;99.90;;;;;;5044773;28;20677;-72
2021/04/05 07:12:43;;;;;;;9.95;2.10;;;5.80;99.90;;;;;;5047092;28;20195;-71
2021/04/05 07:15:29;;;;;;;11.23;2.63;;;5.70;99.90;;;;;;5069445;28;20207;-72
2021/04/05 07:18:22;;;;;;;10.35;2.75;;;5.70;99.90;;;;;;5055093;28;20212;-73
2021/04/05 07:21:04;;;;;;;7.53;1.80;;;5.60;99.90;;;;;;5061732;28;20860;-72
2021/04/05 07:23:47;;;;;;;9.55;2.17;;;5.50;99.90;;;;;;5063251;28;20214;-71
2021/04/05 07:26:18;;;;;;;5.75;1.77;;;5.60;99.90;;;;;;5054064;28;20222;-71
2021/04/05 07:28:56;;;;;;;3.03;1.92;;;5.50;99.90;;;;;;5066800;28;20230;-73
2021/04/05 07:31:42;;;;;;;8.75;2.40;;;5.60;99.90;;;;;;5054886;28;20229;-75
2021/04/05 07:34:36;;;;;;;9.75;2.72;;;5.60;99.90;;;;;;5052604;28;20211;-75
2021/04/05 07:37:21;;;;;;;7.53;2.95;;;5.60;99.90;;;;;;5072633;28;20226;-75
2021/04/05 07:40:00;;;;;;;7.30;2.22;;;5.70;99.90;;;;;;5070383;28;20652;-74
2021/04/05 07:42:34;;;;;;;4.80;1.85;;;5.70;99.90;;;;;;5049627;28;20199;-75
2021/04/05 07:45:08;;;;;;;7.95;2.40;;;5.90;99.90;;;;;;5041145;28;20438;-76
2021/04/05 07:47:43;;;;;;;6.22;2.25;;;6.10;99.90;;;;;;5067814;28;20477;-76
2021/04/05 07:50:19;;;;;;;10.40;2.05;;;6.30;99.90;;;;;;5056191;28;20590;-74
2021/04/05 07:52:55;;;;;;;8.68;2.22;;;6.60;99.90;;;;;;5058379;28;20203;-72
2021/04/05 07:55:24;;;;;;;10.35;1.85;;;6.70;99.90;;;;;;5075101;28;20225;-76
2021/04/05 07:58:03;;;;;;;6.80;2.63;;;6.80;99.90;;;;;;5067353;28;20280;-76
2021/04/05 08:00:35;;;;;;;6.93;2.20;;;7.00;99.90;;;;;;5071553;28;20210;-75
2021/04/05 08:03:08;;;;;;;7.25;2.08;;;7.10;99.90;;;;;;5075596;28;20207;-74
2021/04/05 08:05:53;;;;;;;5.53;2.55;;;6.60;99.90;;;;;;5074835;28;20225;-72
2021/04/05 08:08:33;;;;;;;9.60;3.38;;;6.10;99.90;;;;;;5048211;28;20566;-75
2021/04/05 08:11:12;;;;;;;16.45;7.18;;;5.70;99.90;;;;;;5069927;28;20270;-72
2021/04/05 08:13:52;;;;;;;4.22;2.13;;;6.30;99.90;;;;;;5058920;28;20207;-77
2021/04/05 08:16:28;;;;;;;3.75;1.55;;;7.70;99.90;;;;;;5075626;28;20218;-74
2021/04/05 08:19:01;;;;;;;7.43;2.28;;;8.20;99.60;;;;;;5056356;28;20303;-75
2021/04/05 08:21:34;;;;;;;5.55;2.70;;;7.80;99.70;;;;;;5073167;28;20200;-75
2021/04/05 08:24:12;;;;;;;4.35;2.28;;;8.40;99.90;;;;;;5073028;28;20533;-74
2021/04/05 08:26:46;;;;;;;5.60;2.20;;;8.90;99.70;;;;;;5052779;28;20241;-73
2021/04/05 08:29:21;;;;;;;8.35;2.28;;;10.00;98.20;;;;;;5061445;28;20211;-73
2021/04/05 08:32:04;;;;;;;5.93;3.50;;;10.40;95.00;;;;;;5066232;28;20206;-71
2021/04/05 08:34:45;;;;;;;8.30;2.42;;;10.60;95.60;;;;;;5053209;28;20199;-73
2021/04/05 08:37:21;;;;;;;4.85;2.85;;;10.20;95.20;;;;;;5065930;28;20233;-73
2021/04/05 08:40:00;;;;;;;7.43;4.05;;;9.10;96.60;;;;;;5061500;28;20205;-74
2021/04/05 08:42:34;;;;;;;9.43;2.28;;;7.20;99.90;;;;;;5059812;28;20211;-73
2021/04/05 08:45:11;;;;;;;7.53;2.13;;;6.10;99.90;;;;;;5068169;28;20206;-73
2021/04/05 08:47:43;;;;;;;7.47;2.33;;;5.50;99.90;;;;;;5063505;28;20276;-75
2021/04/05 08:50:12;;;;;;;9.38;2.40;;;4.70;99.90;;;;;;5063487;28;20311;-74
2021/04/05 08:52:42;;;;;;;7.28;2.72;;;4.40;99.90;;;;;;5067107;28;20256;-76
2021/04/05 08:55:13;;;;;;;6.65;2.40;;;4.20;99.90;;;;;;5069109;28;20207;-77
2021/04/05 08:57:50;;;;;;;5.10;2.20;;;4.10;99.90;;;;;;5066203;28;20208;-75
2021/04/05 09:00:18;;;;;;;4.72;2.22;;;4.10;99.90;;;;;;5056646;28;20212;-79
2021/04/05 09:02:53;;;;;;;3.72;2.17;;;4.10;99.90;;;;;;5073938;28;20203;-74
2021/04/05 09:05:22;;;;;;;4.05;1.50;;;4.20;99.90;;;;;;5070316;28;20217;-75
2021/04/05 09:07:58;;;;;;;7.47;1.98;;;4.20;99.90;;;;;;5067931;28;20328;-76
2021/04/05 09:10:29;;;;;;;7.38;2.35;;;4.30;99.90;;;;;;5071578;28;20204;-76
2021/04/05 09:13:00;;;;;;;4.68;1.75;;;4.30;99.90;;;;;;5076515;28;20217;-76
2021/04/05 09:15:54;;;;;;;6.60;1.60;;;4.40;99.90;;;;;;5066303;28;20220;-75
2021/04/05 09:19:02;;;;;;;8.18;2.22;;;4.50;99.90;;;;;;5053242;28;20223;-75
2021/04/05 09:21:59;;;;;;;10.77;2.60;;;4.60;99.90;;;;;;5026705;28;20333;-74
2021/04/05 09:24:58;;;;;;;7.30;2.42;;;4.90;99.90;;;;;;5071658;28;20210;-74
2021/04/05 09:27:55;;;;;;;11.07;3.72;;;5.60;99.90;;;;;;5062184;28;20205;-75
2021/04/05 09:30:54;;;;;;;7.32;2.63;;;6.50;99.90;;;;;;5061377;28;20447;-75
2021/04/05 09:34:06;;;;;;;14.40;4.60;;;7.80;99.90;;;;;;5075304;28;20207;-74
2021/04/05 09:36:49;;;;;;;7.90;4.70;;;8.20;99.90;;;;;;5064731;28;20252;-74
2021/04/05 09:39:41;;;;;;;11.02;4.45;;;7.90;99.90;;;;;;5054332;28;20651;-75
2021/04/05 09:42:38;;;;;;;11.90;4.55;;;7.60;99.90;;;;;;5062353;28;20580;-73
2021/04/05 09:45:14;;;;;;;8.85;3.60;;;7.20;99.90;;;;;;5064890;28;20195;-74
2021/04/05 09:48:24;;;;;;;12.90;4.88;;;7.10;99.90;;;;;;5071930;28;20703;-73
2021/04/05 09:51:39;;;;;;;9.30;4.05;;;6.80;99.90;;;;;;5069809;28;20206;-73
2021/04/05 09:54:14;;;;;;;8.05;3.60;;;6.70;99.90;;;;;;5055165;28;20199;-74
2021/04/05 09:56:47;;;;;;;18.77;4.15;;;6.90;99.90;;;;;;5070300;28;20218;-73
2021/04/05 09:59:19;;;;;;;13.02;3.15;;;6.50;99.90;;;;;;5049849;28;20658;-73
2021/04/05 10:01:52;;;;;;;7.93;2.90;;;5.80;99.90;;;;;;5059357;28;20249;-73
2021/04/05 10:04:24;;;;;;;4.07;2.47;;;5.20;99.90;;;;;;5069767;28;20207;-72
2021/04/05 10:06:52;;;;;;;13.85;2.92;;;5.10;99.90;;;;;;5067685;28;20695;-73
2021/04/05 10:09:26;;;;;;;11.32;6.40;;;5.00;99.90;;;;;;5071651;28;20199;-72
2021/04/05 10:11:54;;;;;;;10.00;2.90;;;5.30;99.90;;;;;;5063144;28;20211;-71
2021/04/05 10:14:24;;;;;;;9.05;3.78;;;5.50;99.90;;;;;;5060416;28;20622;-72
2021/04/05 10:16:55;;;;;;;8.82;3.22;;;5.60;99.90;;;;;;5067592;28;20692;-73
2021/04/05 10:19:29;;;;;;;6.70;2.40;;;6.10;99.90;;;;;;5070160;28;20202;-73
2021/04/05 10:22:04;;;;;;;9.93;2.95;;;7.00;99.90;;;;;;5068260;28;20195;-72
2021/04/05 10:24:33;;;;;;;3.78;2.33;;;7.40;96.00;;;;;;5072058;28;20244;-72
2021/04/05 10:27:03;;;;;;;5.18;2.65;;;8.00;97.70;;;;;;5061536;28;20594;-71
2021/04/05 10:29:34;;;;;;;10.88;2.33;;;8.70;94.50;;;;;;5066388;28;20313;-72
2021/04/05 10:32:03;;;;;;;7.03;1.58;;;8.60;92.00;;;;;;5057587;28;20207;-70
2021/04/05 10:34:34;;;;;;;10.27;2.97;;;8.10;90.50;;;;;;5072689;28;20218;-70
2021/04/05 10:37:08;;;;;;;10.93;3.10;;;8.30;92.70;;;;;;5069513;28;20232;-71
2021/04/05 10:39:36;;;;;;;9.55;3.17;;;8.50;89.40;;;;;;5071351;28;20676;-70
2021/04/05 10:42:10;;;;;;;4.80;2.70;;;8.60;89.40;;;;;;5054049;28;20213;-70
2021/04/05 10:44:41;;;;;;;7.90;2.80;;;9.10;88.40;;;;;;5073681;28;20743;-73
2021/04/05 10:47:12;;;;;;;10.07;2.88;;;9.30;87.80;;;;;;5071610;28;20225;-73
2021/04/05 10:49:41;;;;;;;13.38;2.95;;;9.10;85.80;;;;;;5071622;28;20229;-71
2021/04/05 10:52:11;;;;;;;8.73;3.33;;;9.00;84.30;;;;;;5066909;28;20671;-72
2021/04/05 10:54:40;;;;;;;10.60;2.95;;;8.70;84.10;;;;;;5059786;28;20202;-72
2021/04/05 10:57:11;;;;;;;8.77;2.63;;;8.50;85.80;;;;;;5065303;28;20226;-71
2021/04/05 10:59:43;;;;;;;12.20;3.35;;;8.20;84.00;;;;;;5070917;28;20586;-73
2021/04/05 11:02:18;;;;;;;18.67;3.40;;;7.60;86.70;;;;;;5072730;28;20207;-72
2021/04/05 11:04:51;;;;;;;11.65;3.53;;;6.90;89.70;;;;;;5064981;28;20206;-71
2021/04/05 11:07:20;;;;;;;15.35;3.55;;;6.30;93.00;;;;;;5066270;28;20265;-71
2021/04/05 11:09:48;;;;;;;13.98;3.00;;;5.80;94.70;;;;;;5065919;28;20199;-73
2021/04/05 11:12:18;;;;;;;6.70;2.55;;;5.50;96.30;;;;;;5069603;28;20199;-72
2021/04/05 11:14:46;;;;;;;9.00;2.90;;;5.20;97.50;;;;;;5062591;28;20206;-72
2021/04/05 11:17:15;;;;;;;5.30;2.10;;;5.20;99.20;;;;;;5070688;28;20233;-72
2021/04/05 11:19:49;;;;;;;15.38;4.47;;;5.20;95.20;;;;;;5059933;28;20302;-73
2021/04/05 11:22:19;;;;;;;9.23;2.78;;;5.40;94.20;;;;;;5050062;28;20231;-72
2021/04/05 11:24:54;;;;;;;5.13;1.70;;;5.70;94.10;;;;;;5065062;28;20238;-73
2021/04/05 11:27:24;;;;;;;7.10;1.30;;;5.60;93.90;;;;;;5063260;28;20645;-73
2021/04/05 11:29:54;;;;;;;4.15;1.25;;;5.30;94.00;;;;;;5071302;28;20199;-71
2021/04/05 11:32:24;;;;;;;4.55;1.15;;;5.30;94.20;;;;;;5060167;28;20199;-72
2021/04/05 11:34:54;;;;;;;3.28;1.30;;;5.60;95.00;;;;;;5068033;28;20214;-72
2021/04/05 11:37:27;;;;;;;6.05;1.65;;;6.00;94.60;;;;;;5071480;28;20222;-72
2021/04/05 11:40:01;;;;;;;9.95;1.85;;;6.20;93.80;;;;;;5051356;28;20194;-70
2021/04/05 11:42:35;;;;;;;7.40;1.55;;;6.10;91.50;;;;;;5062743;28;20194;-73
2021/04/05 11:45:03;;;;;;;4.80;1.67;;;6.30;91.80;;;;;;5062032;28;20211;-74
2021/04/05 11:47:37;;;;;;;8.05;1.30;;;6.50;91.10;;;;;;5071996;28;20202;-75
2021/04/05 11:50:13;;;;;;;3.17;1.73;;;6.70;90.90;;;;;;5064258;28;20233;-73
2021/04/05 11:52:48;;;;;;;3.42;2.10;;;6.70;90.90;;;;;;5067838;28;20571;-75
2021/04/05 11:55:21;;;;;;;3.95;1.90;;;6.70;91.30;;;;;;5058881;28;20576;-73
2021/04/05 11:57:57;;;;;;;7.38;1.85;;;6.60;90.80;;;;;;5049470;28;20230;-74
2021/04/05 12:00:31;;;;;;;6.78;3.75;;;6.60;91.00;;;;;;5068268;28;20226;-74
2021/04/05 12:03:07;;;;;;;6.18;2.90;;;7.00;91.20;;;;;;5060597;28;20209;-73
2021/04/05 12:05:40;;;;;;;9.07;1.92;;;7.20;90.60;;;;;;5048446;28;20223;-74
2021/04/05 12:08:12;;;;;;;7.18;2.75;;;7.40;87.40;;;;;;5069975;28;20511;-72
2021/04/05 12:10:42;;;;;;;10.75;3.42;;;7.00;83.70;;;;;;5066568;28;20196;-72
2021/04/05 12:13:13;;;;;;;4.43;2.60;;;6.70;83.60;;;;;;5063510;28;20566;-73
2021/04/05 12:15:41;;;;;;;3.72;1.65;;;7.00;85.20;;;;;;5068603;28;20237;-74
2021/04/05 12:18:09;;;;;;;3.95;1.70;;;7.50;85.10;;;;;;5071491;28;20242;-73
2021/04/05 12:20:37;;;;;;;9.07;2.33;;;8.00;84.10;;;;;;5065204;28;20288;-73
2021/04/05 12:23:08;;;;;;;6.35;1.25;;;8.40;83.10;;;;;;5063079;28;20215;-73
2021/04/05 12:25:37;;;;;;;4.45;2.00;;;8.40;81.10;;;;;;5065199;28;20692;-72
2021/04/05 12:28:06;;;;;;;8.38;2.33;;;8.40;78.80;;;;;;5066188;28;20719;-71
2021/04/05 12:30:34;;;;;;;8.07;2.05;;;8.30;77.20;;;;;;5063785;28;20555;-73
2021/04/05 12:33:03;;;;;;;7.53;1.80;;;7.80;79.90;;;;;;5070729;28;20646;-73
2021/04/05 12:35:31;;;;;;;5.95;2.00;;;7.50;82.80;;;;;;5064855;28;20230;-72
2021/04/05 12:37:59;;;;;;;4.45;1.27;;;6.90;86.30;;;;;;5064413;28;20227;-72
2021/04/05 12:40:30;;;;;;;5.05;1.40;;;6.60;90.20;;;;;;5062345;28;20207;-74
2021/04/05 12:43:05;;;;;;;2.60;1.40;;;6.60;91.90;;;;;;5068957;28;20570;-75
2021/04/05 12:45:33;;;;;;;4.13;1.05;;;6.40;92.20;;;;;;5068688;28;20229;-72
2021/04/05 12:48:03;;;;;;;4.28;1.58;;;6.10;88.60;;;;;;5067377;28;20199;-73
2021/04/05 12:50:34;;;;;;;8.52;3.10;;;5.80;88.50;;;;;;5073067;28;20210;-72
2021/04/05 12:53:05;;;;;;;5.80;2.33;;;5.80;89.40;;;;;;5069585;28;20555;-73
2021/04/05 12:55:37;;;;;;;6.28;3.15;;;5.90;90.50;;;;;;5049350;28;20265;-73
2021/04/05 12:58:04;;;;;;;10.27;4.25;;;5.80;91.30;;;;;;5074138;28;20218;-75
2021/04/05 13:00:31;;;;;;;2.92;1.80;;;5.70;91.70;;;;;;5078053;28;20225;-74
2021/04/05 13:03:13;;;;;;;8.50;5.32;;;5.80;92.20;;;;;;5072403;28;20195;-76
2021/04/05 13:05:45;;;;;;;8.25;4.50;;;6.00;91.40;;;;;;5070513;28;20230;-80
2021/04/05 13:08:21;;;;;;;8.98;3.60;;;6.10;90.40;;;;;;5073945;28;20214;-76
2021/04/05 13:10:54;;;;;;;9.77;3.88;;;6.30;89.80;;;;;;5067982;28;20799;-75
2021/04/05 13:13:23;;;;;;;6.68;2.50;;;6.50;89.30;;;;;;5050056;28;20230;-75
2021/04/05 13:16:01;;;;;;;11.35;3.70;;;6.50;88.10;;;;;;5065953;28;20278;-78
2021/04/05 13:18:32;;;;;;;8.13;2.40;;;6.70;88.50;;;;;;5073796;28;20738;-75